Time;durP1;ratioP1;P1;durP2;ratioP2;P2;SDS_P1;SDS_P2;PMS_P1;PMS_P2;Temp;Humidity;BMP_temperature;BMP_pressure;BME280_temperature;BME280_humidity;BME280_pressure;Samples;Min_cycle;Max_cycle;Signal;HPM_P1;HPM_P2
2022/12/04 04:25:35;;;;;;;24.98;15.98;;;9.50;54.40;;;;;;4771343;30;20076;-76
2022/12/04 04:28:01;;;;;;;31.25;15.75;;;9.60;54.90;;;;;;4738897;30;20059;-76
2022/12/04 04:30:29;;;;;;;23.65;14.27;;;9.80;55.20;;;;;;4770549;30;20059;-76
2022/12/04 04:33:15;;;;;;;26.42;14.93;;;10.10;55.90;;;;;;4785145;29;20047;-73
2022/12/04 04:35:52;;;;;;;25.77;13.60;;;10.40;56.40;;;;;;4770795;30;20099;-79
2022/12/04 04:38:38;;;;;;;28.30;13.85;;;10.60;56.20;;;;;;4771232;30;20044;-78
2022/12/04 04:41:23;;;;;;;28.63;12.95;;;10.90;56.60;;;;;;4784850;29;20063;-79
2022/12/04 04:44:18;;;;;;;20.95;13.43;;;11.10;56.70;;;;;;4784839;29;20054;-75
2022/12/04 04:46:51;;;;;;;28.42;12.38;;;11.40;56.90;;;;;;4772769;30;20051;-79
2022/12/04 04:49:20;;;;;;;26.65;12.57;;;11.50;56.80;;;;;;4774170;30;20066;-76
2022/12/04 04:51:47;;;;;;;28.92;13.43;;;11.70;56.60;;;;;;4773963;30;20138;-77
2022/12/04 04:54:15;;;;;;;26.48;12.35;;;11.80;56.80;;;;;;4773722;30;20051;-76
2022/12/04 04:56:43;;;;;;;22.33;12.10;;;12.00;57.10;;;;;;4774188;30;20051;-77
2022/12/04 04:59:09;;;;;;;25.30;10.90;;;12.10;57.50;;;;;;4788064;29;20087;-76
2022/12/04 05:01:36;;;;;;;21.17;12.95;;;12.20;58.40;;;;;;4774266;30;20052;-77
2022/12/04 05:04:04;;;;;;;22.38;11.55;;;12.30;57.90;;;;;;4773377;30;20060;-73
2022/12/04 05:06:30;;;;;;;21.23;10.05;;;12.40;57.80;;;;;;4773797;30;20047;-75
2022/12/04 05:08:55;;;;;;;22.35;11.82;;;12.50;58.10;;;;;;4774030;30;20048;-77
2022/12/04 05:11:21;;;;;;;22.33;11.10;;;12.50;58.40;;;;;;4787611;30;20083;-77
2022/12/04 05:13:47;;;;;;;21.77;10.15;;;12.60;58.70;;;;;;4773335;30;20077;-79
2022/12/04 05:16:14;;;;;;;21.38;10.15;;;12.70;58.60;;;;;;4773494;30;20051;-77
2022/12/04 05:18:42;;;;;;;17.88;10.48;;;12.80;58.80;;;;;;4773526;30;20059;-77
2022/12/04 05:21:15;;;;;;;20.25;11.55;;;12.90;58.70;;;;;;4773810;30;20052;-77
2022/12/04 05:23:40;;;;;;;19.77;11.48;;;13.00;58.70;;;;;;4781022;29;20063;-79
2022/12/04 05:26:06;;;;;;;22.15;11.13;;;13.00;58.60;;;;;;4805613;29;20470;-76
2022/12/04 05:28:32;;;;;;;28.98;12.23;;;13.10;58.60;;;;;;4792282;29;20051;-76
2022/12/04 05:31:02;;;;;;;28.33;11.02;;;13.20;58.50;;;;;;4776017;30;20059;-77
2022/12/04 05:33:28;;;;;;;31.13;11.45;;;13.20;58.30;;;;;;4798682;29;20055;-78
2022/12/04 05:36:09;;;;;;;21.92;11.75;;;13.30;58.20;;;;;;4791123;29;20083;-79
2022/12/04 05:38:41;;;;;;;23.58;12.93;;;13.40;58.10;;;;;;4791024;30;20055;-79
2022/12/04 05:41:07;;;;;;;24.17;11.45;;;13.50;57.90;;;;;;4791953;30;20051;-76
2022/12/04 05:43:34;;;;;;;23.25;12.65;;;13.60;57.50;;;;;;4792427;29;20081;-73
2022/12/04 05:46:04;;;;;;;27.10;13.43;;;13.60;57.40;;;;;;4792091;29;20038;-80
2022/12/04 05:48:30;;;;;;;25.88;13.23;;;13.70;57.20;;;;;;4802139;29;20051;-76
2022/12/04 05:50:56;;;;;;;20.88;11.82;;;13.70;57.10;;;;;;4790751;29;20160;-77
2022/12/04 05:53:22;;;;;;;34.13;12.93;;;13.70;57.30;;;;;;4775972;30;20155;-78
2022/12/04 05:55:56;;;;;;;30.98;12.98;;;13.70;57.60;;;;;;4793705;29;20463;-73
2022/12/04 05:58:22;;;;;;;;;;;13.50;53.80;;;;;;4797918;29;20050;-79
2022/12/04 06:00:47;;;;;;;34.65;13.93;;;13.50;55.00;;;;;;4795387;29;19925;-77
2022/12/04 06:03:14;;;;;;;24.88;12.68;;;13.60;58.50;;;;;;4783421;29;20050;-77
2022/12/04 06:05:40;;;;;;;28.10;13.32;;;13.70;58.30;;;;;;4765862;30;20134;-79
2022/12/04 06:08:06;;;;;;;19.85;12.13;;;13.80;58.10;;;;;;4764745;30;20055;-79
2022/12/04 06:10:33;;;;;;;32.22;17.08;;;13.90;58.00;;;;;;4784126;29;20039;-80
2022/12/04 06:13:03;;;;;;;35.00;12.73;;;13.70;50.90;;;;;;4768744;30;20113;-79
2022/12/04 06:15:28;;;;;;;32.30;13.13;;;13.70;58.50;;;;;;4785594;29;20446;-82
2022/12/04 06:17:54;;;;;;;24.15;12.50;;;13.80;58.50;;;;;;4782182;29;20190;-85
2022/12/04 06:20:20;;;;;;;21.88;12.27;;;14.00;58.40;;;;;;4771862;30;20096;-84
2022/12/04 06:22:45;;;;;;;28.23;12.40;;;14.10;58.30;;;;;;4766692;30;20130;-84
2022/12/04 06:25:12;;;;;;;22.45;11.90;;;14.20;58.00;;;;;;4781681;29;20485;-82
2022/12/04 06:27:37;;;;;;;24.15;12.52;;;14.20;58.00;;;;;;4783943;29;20043;-82
2022/12/04 06:30:03;;;;;;;25.30;12.15;;;14.20;57.90;;;;;;4769365;30;20122;-81
2022/12/04 06:32:29;;;;;;;23.23;12.18;;;14.20;58.10;;;;;;4784153;29;20392;-81
2022/12/04 06:34:58;;;;;;;23.42;11.82;;;14.20;57.90;;;;;;4793693;29;20071;-83
2022/12/04 06:37:24;;;;;;;23.70;13.32;;;14.10;58.00;;;;;;4781657;29;20396;-82
2022/12/04 06:39:50;;;;;;;24.63;13.18;;;14.10;58.20;;;;;;4766289;30;20043;-82
2022/12/04 06:42:16;;;;;;;21.75;13.45;;;14.00;58.60;;;;;;4767933;30;20437;-81
2022/12/04 06:44:41;;;;;;;28.63;11.75;;;14.00;58.90;;;;;;4779264;30;20055;-80
2022/12/04 06:47:08;;;;;;;29.60;12.90;;;13.90;58.60;;;;;;4756791;30;20065;-73
2022/12/04 06:49:33;;;;;;;25.75;13.75;;;13.80;58.50;;;;;;4784870;29;20055;-77
2022/12/04 06:51:59;;;;;;;27.52;14.65;;;13.80;58.40;;;;;;4784915;29;20337;-77
2022/12/04 06:54:25;;;;;;;28.02;16.48;;;13.70;57.70;;;;;;4787505;29;20126;-75
2022/12/04 06:56:51;;;;;;;28.80;15.93;;;13.60;57.30;;;;;;4785405;29;20145;-76
2022/12/04 06:59:16;;;;;;;27.90;16.08;;;13.50;57.50;;;;;;4783403;29;20055;-75
2022/12/04 07:01:42;;;;;;;23.95;15.65;;;13.50;57.70;;;;;;4781271;29;20394;-75
2022/12/04 07:04:10;;;;;;;25.02;15.00;;;13.40;57.60;;;;;;4788653;29;20055;-77
2022/12/04 07:06:38;;;;;;;28.05;15.73;;;13.40;57.70;;;;;;4804871;29;20107;-76
2022/12/04 07:09:12;;;;;;;27.80;17.92;;;13.30;57.00;;;;;;4806171;29;20397;-75
2022/12/04 07:11:39;;;;;;;26.35;14.57;;;13.20;53.70;;;;;;4807460;29;20073;-74
2022/12/04 07:14:05;;;;;;;29.23;14.98;;;13.20;56.90;;;;;;4807243;29;20117;-76
2022/12/04 07:16:31;;;;;;;29.20;14.43;;;13.30;57.00;;;;;;4792134;29;20516;-75
2022/12/04 07:18:57;;;;;;;29.02;14.85;;;13.50;56.90;;;;;;4807428;29;20054;-75
2022/12/04 07:21:25;;;;;;;28.58;13.77;;;13.60;56.90;;;;;;4794155;29;20145;-75
2022/12/04 07:23:52;;;;;;;22.65;12.77;;;13.80;57.00;;;;;;4789940;30;20082;-74
2022/12/04 07:26:19;;;;;;;36.70;14.15;;;13.90;56.90;;;;;;4789547;30;20049;-75
2022/12/04 07:28:44;;;;;;;27.20;14.07;;;14.00;57.10;;;;;;4789579;30;20058;-75
2022/12/04 07:31:13;;;;;;;33.80;13.63;;;14.20;57.00;;;;;;4774329;30;20051;-75
2022/12/04 07:33:39;;;;;;;28.58;14.32;;;14.20;56.90;;;;;;4790249;30;20066;-74
2022/12/04 07:36:08;;;;;;;27.35;12.88;;;14.30;55.40;;;;;;4803594;29;20165;-75
2022/12/04 07:38:34;;;;;;;24.20;13.25;;;14.30;57.00;;;;;;4791294;29;20122;-76
2022/12/04 07:41:05;;;;;;;24.08;13.73;;;14.40;57.20;;;;;;4773878;30;20055;-73
2022/12/04 07:43:31;;;;;;;25.70;13.73;;;14.60;57.00;;;;;;4773029;29;20466;-75
2022/12/04 07:45:58;;;;;;;44.15;14.73;;;14.50;56.50;;;;;;4789556;29;20363;-77
2022/12/04 07:48:23;;;;;;;25.17;12.40;;;14.60;55.40;;;;;;4789336;29;20130;-77
2022/12/04 07:50:49;;;;;;;30.05;12.82;;;14.60;56.50;;;;;;4794455;29;20134;-76
2022/12/04 07:53:15;;;;;;;31.33;13.23;;;14.60;56.60;;;;;;4805625;29;20070;-74
2022/12/04 07:55:41;;;;;;;32.15;13.52;;;14.60;56.60;;;;;;4774701;29;20122;-74
2022/12/04 07:58:07;;;;;;;29.40;12.85;;;14.70;56.90;;;;;;4789338;29;20119;-75
2022/12/04 08:00:32;;;;;;;35.50;14.13;;;14.70;57.10;;;;;;4807360;29;20050;-74
2022/12/04 08:02:58;;;;;;;22.88;11.93;;;14.70;57.00;;;;;;4794922;29;20086;-75
2022/12/04 08:05:24;;;;;;;36.08;13.57;;;14.70;56.90;;;;;;4789656;30;20062;-73
2022/12/04 08:07:50;;;;;;;22.05;12.57;;;14.70;55.30;;;;;;4789812;29;20126;-74
2022/12/04 08:10:15;;;;;;;22.92;12.95;;;14.80;57.00;;;;;;4789740;29;20065;-75
2022/12/04 08:12:41;;;;;;;25.20;12.35;;;13.70;54.30;;;;;;4789499;30;20055;-74
2022/12/04 08:15:07;;;;;;;31.50;13.23;;;13.20;58.60;;;;;;4789905;30;20533;-73
2022/12/04 08:17:33;;;;;;;26.85;12.20;;;13.70;59.50;;;;;;4790634;29;20078;-72
2022/12/04 08:19:59;;;;;;;23.67;12.02;;;14.00;59.20;;;;;;4791739;29;20130;-74
2022/12/04 08:22:25;;;;;;;27.15;12.35;;;14.30;58.70;;;;;;4792592;29;20072;-74
2022/12/04 08:24:51;;;;;;;23.83;11.20;;;14.50;58.30;;;;;;4792468;30;20490;-73
2022/12/04 08:27:16;;;;;;;23.92;11.38;;;14.70;57.80;;;;;;4792542;30;20059;-75
2022/12/04 08:29:42;;;;;;;23.17;11.23;;;14.80;57.80;;;;;;4792490;29;20062;-74
2022/12/04 08:32:08;;;;;;;22.98;10.55;;;15.00;57.50;;;;;;4793748;29;20083;-74
2022/12/04 08:34:34;;;;;;;17.38;10.73;;;15.10;57.20;;;;;;4792361;29;20142;-73
2022/12/04 08:36:59;;;;;;;23.60;11.50;;;15.20;57.20;;;;;;4792197;29;20387;-74
2022/12/04 08:39:25;;;;;;;25.92;11.23;;;15.30;57.10;;;;;;4792645;30;20051;-73
2022/12/04 08:41:51;;;;;;;17.35;10.15;;;15.30;57.10;;;;;;4792550;29;20379;-75
2022/12/04 08:44:16;;;;;;;18.50;10.00;;;15.30;57.10;;;;;;4792625;30;20048;-73
2022/12/04 08:46:42;;;;;;;24.05;11.10;;;15.30;57.20;;;;;;4792033;29;20087;-74
2022/12/04 08:49:08;;;;;;;22.15;10.05;;;15.40;57.40;;;;;;4792292;29;20051;-76
2022/12/04 08:51:34;;;;;;;20.10;10.57;;;15.40;57.60;;;;;;4792375;30;20128;-76
2022/12/04 08:54:06;;;;;;;20.20;9.68;;;15.50;57.60;;;;;;4791703;29;20055;-74
2022/12/04 08:56:32;;;;;;;16.98;10.30;;;15.50;57.70;;;;;;4792118;30;20058;-76
2022/12/04 08:58:59;;;;;;;16.95;10.82;;;15.60;57.80;;;;;;4793679;29;20096;-76
2022/12/04 09:01:27;;;;;;;21.90;9.73;;;15.60;57.90;;;;;;4792037;29;20067;-77
2022/12/04 09:03:53;;;;;;;18.05;9.63;;;15.60;58.10;;;;;;4792439;29;20406;-75
2022/12/04 09:06:19;;;;;;;16.35;9.07;;;15.60;58.30;;;;;;4792115;30;20822;-73
2022/12/04 09:08:45;;;;;;;21.98;10.25;;;15.70;58.50;;;;;;4791751;30;20146;-73
2022/12/04 09:11:14;;;;;;;16.00;9.48;;;15.70;58.40;;;;;;4792049;29;20055;-73
2022/12/04 09:13:41;;;;;;;19.65;9.73;;;15.70;58.60;;;;;;4791955;30;20402;-73
2022/12/04 09:16:09;;;;;;;22.42;11.85;;;15.70;58.50;;;;;;4792183;30;20055;-73
2022/12/04 09:18:36;;;;;;;19.98;13.30;;;15.50;54.10;;;;;;4791845;30;20051;-73
2022/12/04 09:21:04;;;;;;;23.23;14.93;;;15.30;55.70;;;;;;4791703;30;20090;-72
2022/12/04 09:23:30;;;;;;;23.98;14.57;;;15.30;55.30;;;;;;4791195;29;20337;-72
2022/12/04 09:25:55;;;;;;;18.20;13.05;;;15.40;55.30;;;;;;4775993;30;20054;-74
2022/12/04 09:28:21;;;;;;;19.98;12.90;;;15.40;56.50;;;;;;4791798;29;20047;-73
2022/12/04 09:31:03;;;;;;;28.50;12.65;;;15.40;56.50;;;;;;4775016;30;20051;-74
2022/12/04 09:33:29;;;;;;;22.85;12.35;;;15.40;57.40;;;;;;4791959;29;20089;-73
2022/12/04 09:35:58;;;;;;;24.35;13.52;;;15.40;57.50;;;;;;4790599;29;20189;-77
2022/12/04 09:38:23;;;;;;;24.65;12.55;;;15.50;57.90;;;;;;4775429;30;20059;-73
2022/12/04 09:41:03;;;;;;;22.20;11.45;;;15.60;58.00;;;;;;4791635;29;20055;-74
2022/12/04 09:43:41;;;;;;;18.73;10.45;;;15.60;58.20;;;;;;4791453;30;20051;-73
2022/12/04 09:46:17;;;;;;;26.60;11.32;;;15.60;58.50;;;;;;4791243;29;20055;-70
2022/12/04 09:48:47;;;;;;;16.55;10.63;;;15.50;58.80;;;;;;4785586;30;20059;-73
2022/12/04 09:51:18;;;;;;;28.65;11.32;;;15.50;58.90;;;;;;4782451;30;20051;-75
2022/12/04 09:54:02;;;;;;;24.13;11.50;;;15.40;58.50;;;;;;4775628;30;20523;-74
2022/12/04 09:56:28;;;;;;;;;;;15.30;58.80;;;;;;4758605;30;20063;-73
2022/12/04 09:59:08;;;;;;;22.52;12.63;;;14.60;57.90;;;;;;4772666;30;19936;-73
2022/12/04 10:01:45;;;;;;;20.77;13.20;;;14.60;58.40;;;;;;4778865;30;20486;-73
2022/12/04 10:04:13;;;;;;;18.85;11.02;;;14.50;58.60;;;;;;4790805;29;20115;-75
2022/12/04 10:06:51;;;;;;;17.42;10.55;;;14.50;58.60;;;;;;4791814;30;20515;-74
2022/12/04 10:09:35;;;;;;;13.75;8.88;;;14.50;58.60;;;;;;4790925;29;20062;-73
2022/12/04 10:12:13;;;;;;;14.20;8.00;;;14.50;58.70;;;;;;4790733;30;20156;-72
2022/12/04 10:14:54;;;;;;;10.07;7.88;;;14.40;58.80;;;;;;4790988;30;20055;-73
2022/12/04 10:17:36;;;;;;;13.52;7.88;;;14.40;58.90;;;;;;4789392;29;20491;-72
2022/12/04 10:20:10;;;;;;;12.18;7.20;;;14.40;59.30;;;;;;4787854;29;20059;-74
2022/12/04 10:22:48;;;;;;;11.90;7.03;;;14.30;58.90;;;;;;4771696;30;20078;-73
2022/12/04 10:25:19;;;;;;;14.98;7.80;;;14.30;59.00;;;;;;4782584;29;20201;-75
2022/12/04 10:28:17;;;;;;;18.92;13.00;;;14.20;59.20;;;;;;4786202;29;20094;-75
2022/12/04 10:30:44;;;;;;;19.35;13.10;;;14.30;58.60;;;;;;4776170;30;20376;-74
2022/12/04 10:33:40;;;;;;;17.23;11.05;;;14.20;58.30;;;;;;4785411;30;20046;-73
2022/12/04 10:36:10;;;;;;;23.75;13.15;;;14.20;56.90;;;;;;4802057;29;20058;-73
2022/12/04 10:39:00;;;;;;;22.60;11.80;;;14.10;56.70;;;;;;4795949;29;20047;-74
2022/12/04 10:41:53;;;;;;;16.67;9.60;;;14.20;57.20;;;;;;4795860;29;20122;-73
2022/12/04 10:44:19;;;;;;;19.10;8.68;;;14.30;57.50;;;;;;4785921;29;20062;-73
2022/12/04 10:46:45;;;;;;;18.88;9.23;;;14.50;57.60;;;;;;4796544;29;20063;-73
2022/12/04 10:49:28;;;;;;;15.35;8.15;;;14.60;57.60;;;;;;4797634;29;20066;-76
2022/12/04 10:51:54;;;;;;;16.63;7.25;;;14.70;57.70;;;;;;4804795;29;20607;-73
2022/12/04 10:54:35;;;;;;;13.88;6.55;;;14.80;57.80;;;;;;4793887;29;20050;-73
2022/12/04 10:57:07;;;;;;;11.98;6.47;;;14.90;58.00;;;;;;4785898;29;20065;-74
2022/12/04 10:59:33;;;;;;;14.73;6.35;;;14.90;58.30;;;;;;4782944;29;20436;-73
2022/12/04 11:02:14;;;;;;;15.75;6.57;;;15.00;58.40;;;;;;4789728;29;20407;-73
2022/12/04 11:04:40;;;;;;;9.55;5.38;;;15.00;58.50;;;;;;4785252;29;20196;-76
2022/12/04 11:07:20;;;;;;;9.80;5.85;;;15.00;58.50;;;;;;4783636;29;20138;-81
2022/12/04 11:09:58;;;;;;;9.40;4.68;;;15.10;58.60;;;;;;4788936;29;20055;-81
2022/12/04 11:12:25;;;;;;;11.50;6.00;;;15.20;58.50;;;;;;4779587;30;20051;-80
2022/12/04 11:15:06;;;;;;;12.48;5.03;;;15.20;58.50;;;;;;4773815;30;20058;-78
2022/12/04 11:17:34;;;;;;;12.55;5.38;;;15.30;58.80;;;;;;4788963;30;20054;-79
2022/12/04 11:20:03;;;;;;;17.50;5.45;;;15.30;58.90;;;;;;4773840;30;20046;-80
2022/12/04 11:22:30;;;;;;;20.85;6.25;;;15.30;59.10;;;;;;4789769;30;20069;-81
2022/12/04 11:24:58;;;;;;;18.33;5.05;;;15.30;60.00;;;;;;4773722;30;20067;-73
2022/12/04 11:27:33;;;;;;;19.30;5.28;;;15.30;59.40;;;;;;4789626;30;20043;-73
2022/12/04 11:30:07;;;;;;;25.35;5.82;;;15.30;59.20;;;;;;4789630;29;20051;-73
2022/12/04 11:32:34;;;;;;;24.63;5.82;;;15.30;59.30;;;;;;4789876;30;20493;-74
2022/12/04 11:35:11;;;;;;;43.63;6.45;;;15.20;59.40;;;;;;4773961;30;20108;-76
2022/12/04 11:37:36;;;;;;;21.02;6.10;;;15.20;59.90;;;;;;4773470;30;20541;-74
2022/12/04 11:40:13;;;;;;;31.05;6.22;;;15.10;60.20;;;;;;4773955;30;20063;-74
2022/12/04 11:42:39;;;;;;;24.27;6.50;;;15.00;60.40;;;;;;4772694;30;20051;-74
2022/12/04 11:45:21;;;;;;;26.48;6.63;;;15.00;59.70;;;;;;4789604;30;20086;-74
2022/12/04 11:47:59;;;;;;;26.85;6.18;;;14.90;58.40;;;;;;4773901;30;20051;-74
2022/12/04 11:50:43;;;;;;;19.48;5.90;;;14.80;58.20;;;;;;4789423;30;20059;-75
2022/12/04 11:53:17;;;;;;;;;;;14.70;58.50;;;;;;4792145;29;20062;-74
2022/12/04 11:56:15;;;;;;;13.57;5.78;;;14.60;58.50;;;;;;4792713;30;19941;-74
2022/12/04 11:58:56;;;;;;;12.43;5.07;;;14.50;58.70;;;;;;4793240;30;20058;-74
2022/12/04 12:02:00;;;;;;;16.75;5.35;;;14.40;58.90;;;;;;4792624;30;20570;-74
2022/12/04 12:04:44;;;;;;;11.00;3.93;;;14.40;59.00;;;;;;4777927;30;20141;-73
2022/12/04 12:07:31;;;;;;;11.55;4.55;;;14.30;59.20;;;;;;4778094;30;20329;-75
2022/12/04 12:10:09;;;;;;;14.63;4.05;;;14.30;59.30;;;;;;4777012;30;20095;-74
2022/12/04 12:12:40;;;;;;;9.93;3.53;;;14.20;59.50;;;;;;4792851;30;20055;-75
2022/12/04 12:15:41;;;;;;;9.75;7.05;;;14.20;59.60;;;;;;4792992;30;20455;-79
2022/12/04 12:18:19;;;;;;;13.80;7.50;;;14.20;54.70;;;;;;4791958;30;20090;-74
2022/12/04 12:20:57;;;;;;;20.95;7.25;;;14.10;54.50;;;;;;4792489;29;20047;-71
2022/12/04 12:23:47;;;;;;;17.75;5.90;;;14.00;54.50;;;;;;4792514;29;20103;-71
2022/12/04 12:26:15;;;;;;;19.88;6.25;;;13.90;55.10;;;;;;4792854;30;20070;-73
2022/12/04 12:28:43;;;;;;;19.70;6.10;;;13.90;55.40;;;;;;4792708;30;20047;-75
2022/12/04 12:31:17;;;;;;;15.50;6.07;;;13.80;55.70;;;;;;4792950;29;20155;-73
2022/12/04 12:34:07;;;;;;;14.05;5.10;;;13.80;55.60;;;;;;4789090;29;20112;-74
2022/12/04 12:36:41;;;;;;;17.13;5.47;;;13.90;56.70;;;;;;4805169;29;20145;-74
2022/12/04 12:39:57;;;;;;;19.58;4.68;;;14.00;57.10;;;;;;4803812;29;20059;-73
2022/12/04 12:42:36;;;;;;;23.58;4.60;;;14.10;57.90;;;;;;4713234;30;20146;-73
2022/12/04 12:45:25;;;;;;;20.10;5.38;;;14.20;58.10;;;;;;4719840;30;20057;-74
2022/12/04 12:47:55;;;;;;;22.63;4.30;;;14.30;58.20;;;;;;4763414;30;20067;-74
2022/12/04 12:50:27;;;;;;;18.38;4.15;;;14.40;58.60;;;;;;4774341;30;20086;-74
2022/12/04 12:53:04;;;;;;;15.50;3.78;;;14.50;58.80;;;;;;4774441;30;20051;-75
2022/12/04 12:55:40;;;;;;;13.98;3.65;;;14.50;59.20;;;;;;4774280;30;20063;-74
2022/12/04 12:58:14;;;;;;;14.27;3.75;;;14.60;59.60;;;;;;4774500;30;20143;-74
2022/12/04 13:00:50;;;;;;;15.35;3.67;;;14.60;60.00;;;;;;4785003;29;20081;-74
2022/12/04 13:03:48;;;;;;;12.77;3.58;;;14.60;60.30;;;;;;4791448;29;20134;-75
2022/12/04 13:06:29;;;;;;;18.48;4.22;;;14.70;60.70;;;;;;4792259;30;20052;-75
2022/12/04 13:08:55;;;;;;;16.02;4.32;;;14.70;60.80;;;;;;4791476;30;20087;-74
2022/12/04 13:11:24;;;;;;;22.15;4.57;;;14.80;60.80;;;;;;4792689;30;20163;-75
2022/12/04 13:13:54;;;;;;;11.02;4.00;;;14.90;60.70;;;;;;4769861;30;20055;-74
2022/12/04 13:16:24;;;;;;;15.27;4.30;;;15.00;60.40;;;;;;4778100;30;20054;-76
2022/12/04 13:19:07;;;;;;;17.75;4.45;;;15.20;60.10;;;;;;4790353;30;20048;-75
2022/12/04 13:22:00;;;;;;;23.52;4.55;;;15.20;59.90;;;;;;4791681;29;20120;-81
2022/12/04 13:25:05;;;;;;;15.45;4.15;;;15.30;59.50;;;;;;4791633;30;20059;-80
2022/12/04 13:27:40;;;;;;;19.25;5.03;;;15.40;59.50;;;;;;4791468;29;20070;-82
2022/12/04 13:30:36;;;;;;;25.98;4.25;;;15.40;59.40;;;;;;4791623;30;20091;-80
2022/12/04 13:33:38;;;;;;;22.25;3.85;;;15.50;59.60;;;;;;4775726;30;20059;-80
2022/12/04 13:36:26;;;;;;;23.17;4.20;;;15.50;59.50;;;;;;4687402;30;20057;-82
2022/12/04 13:39:00;;;;;;;19.55;4.57;;;15.50;59.70;;;;;;4756012;30;20538;-82
2022/12/04 13:41:27;;;;;;;24.67;4.50;;;15.50;59.90;;;;;;4791742;30;20467;-78
2022/12/04 13:43:56;;;;;;;31.33;4.78;;;14.90;59.90;;;;;;4774771;29;20058;-75
2022/12/04 13:46:29;;;;;;;20.65;5.13;;;15.10;60.60;;;;;;4781418;30;20047;-75
2022/12/04 13:49:07;;;;;;;21.27;4.23;;;15.30;60.50;;;;;;4804548;29;20108;-75
2022/12/04 13:51:35;;;;;;;18.30;4.32;;;15.40;60.60;;;;;;4805584;29;20557;-76
2022/12/04 13:54:19;;;;;;;19.10;4.55;;;15.40;60.70;;;;;;4791175;30;20063;-71
2022/12/04 13:56:48;;;;;;;21.77;4.78;;;15.40;60.00;;;;;;4788389;29;20057;-75
2022/12/04 13:59:36;;;;;;;21.13;4.70;;;15.50;60.50;;;;;;4780731;30;20448;-75
2022/12/04 14:02:34;;;;;;;20.40;4.35;;;15.60;60.00;;;;;;4787062;29;20051;-74
2022/12/04 14:04:59;;;;;;;24.08;4.50;;;15.70;59.90;;;;;;4784356;29;20043;-74
2022/12/04 14:07:35;;;;;;;20.23;3.70;;;15.70;59.80;;;;;;4780519;30;20537;-74
2022/12/04 14:10:25;;;;;;;17.20;3.95;;;15.70;59.70;;;;;;4781105;29;20047;-73
2022/12/04 14:13:05;;;;;;;17.80;3.90;;;15.70;59.70;;;;;;4782027;29;20070;-75
2022/12/04 14:15:36;;;;;;;19.20;4.68;;;15.60;59.70;;;;;;4779903;30;20497;-75
2022/12/04 14:18:04;;;;;;;13.60;3.70;;;15.60;59.90;;;;;;4780967;30;20047;-74
2022/12/04 14:20:33;;;;;;;14.60;4.30;;;15.50;60.00;;;;;;4766590;30;20051;-74
2022/12/04 14:23:27;;;;;;;15.23;4.03;;;15.40;60.10;;;;;;4781292;30;20067;-70
2022/12/04 14:25:55;;;;;;;16.15;5.35;;;15.40;60.10;;;;;;4784253;29;20066;-69
2022/12/04 14:28:41;;;;;;;15.45;6.60;;;15.40;59.30;;;;;;4772586;30;20490;-70
2022/12/04 14:31:30;;;;;;;12.57;7.40;;;15.30;57.60;;;;;;4783976;30;20055;-70
2022/12/04 14:34:09;;;;;;;13.35;7.88;;;15.20;56.50;;;;;;4780472;30;20115;-77
2022/12/04 14:36:42;;;;;;;11.90;7.90;;;15.20;55.60;;;;;;4781852;30;20383;-76
2022/12/04 14:39:15;;;;;;;12.93;7.97;;;15.10;53.90;;;;;;4781280;29;20411;-77
2022/12/04 14:41:41;;;;;;;15.98;8.00;;;15.00;54.10;;;;;;4781570;30;20083;-75
2022/12/04 14:44:14;;;;;;;14.35;7.30;;;14.90;54.60;;;;;;4781376;30;20086;-77
2022/12/04 14:46:48;;;;;;;10.43;7.03;;;14.70;55.10;;;;;;4782452;30;20056;-77
2022/12/04 14:49:29;;;;;;;16.02;8.15;;;14.70;55.50;;;;;;4780319;30;20369;-76
2022/12/04 14:52:01;;;;;;;13.10;7.38;;;14.60;56.10;;;;;;4782111;30;20126;-77
2022/12/04 14:54:43;;;;;;;11.05;6.20;;;14.60;56.60;;;;;;4765042;30;20055;-74
2022/12/04 14:57:31;;;;;;;16.65;7.50;;;14.50;57.00;;;;;;4781780;30;20047;-76
2022/12/04 14:59:57;;;;;;;15.27;6.95;;;14.40;58.00;;;;;;4772018;30;20471;-77
2022/12/04 15:02:40;;;;;;;12.10;6.85;;;14.40;58.20;;;;;;4782462;29;20054;-77
2022/12/04 15:05:14;;;;;;;14.20;5.60;;;14.50;58.90;;;;;;4789043;30;20062;-79
2022/12/04 15:07:48;;;;;;;13.93;5.50;;;14.70;58.80;;;;;;4774482;30;20051;-78
2022/12/04 15:13:09;;;;;;;16.52;5.82;;;14.90;59.00;;;;;;4789948;29;20059;-75
2022/12/04 15:15:35;;;;;;;16.25;5.93;;;15.00;58.90;;;;;;4790595;29;20058;-77
2022/12/04 15:18:12;;;;;;;21.48;6.28;;;15.00;59.10;;;;;;4789464;30;20063;-77
2022/12/04 15:20:48;;;;;;;18.98;5.95;;;15.00;59.50;;;;;;4774169;30;20063;-76
2022/12/04 15:23:21;;;;;;;22.67;6.35;;;15.10;59.70;;;;;;4789444;29;20471;-75
2022/12/04 15:25:53;;;;;;;16.02;6.22;;;15.20;59.80;;;;;;4774335;30;20098;-77
2022/12/04 15:28:30;;;;;;;28.60;7.20;;;15.30;59.90;;;;;;4789797;30;20058;-79
2022/12/04 15:30:59;;;;;;;19.27;6.32;;;15.40;60.00;;;;;;4773803;30;20043;-79
2022/12/04 15:33:28;;;;;;;22.92;6.05;;;15.50;60.20;;;;;;4789832;30;20115;-77
2022/12/04 15:36:06;;;;;;;17.52;6.20;;;15.50;60.70;;;;;;4774071;30;20153;-77
2022/12/04 15:38:33;;;;;;;21.75;6.35;;;15.50;61.60;;;;;;4790107;30;20197;-77
2022/12/04 15:41:00;;;;;;;19.85;5.93;;;15.60;61.80;;;;;;4789902;30;20062;-79
2022/12/04 15:43:30;;;;;;;26.20;6.50;;;15.60;61.90;;;;;;4789720;30;20077;-78
2022/12/04 15:45:56;;;;;;;19.75;5.85;;;15.70;62.00;;;;;;4789791;30;20130;-76
2022/12/04 15:48:27;;;;;;;21.08;5.68;;;15.80;61.90;;;;;;4773867;30;20051;-79
2022/12/04 15:51:01;;;;;;;17.95;5.45;;;15.90;61.80;;;;;;4789633;30;20459;-77
2022/12/04 15:53:32;;;;;;;17.95;5.60;;;15.90;61.90;;;;;;4789654;30;20452;-77
2022/12/04 15:56:05;;;;;;;17.15;5.25;;;16.00;61.90;;;;;;4789736;30;20112;-76
2022/12/04 15:58:37;;;;;;;16.05;5.20;;;16.00;61.90;;;;;;4774166;30;20047;-79
2022/12/04 16:01:06;;;;;;;15.40;4.93;;;16.00;61.80;;;;;;4774237;30;20090;-79
2022/12/04 16:03:41;;;;;;;24.27;6.35;;;16.10;61.60;;;;;;4789297;30;20133;-76
2022/12/04 16:06:07;;;;;;;19.48;5.82;;;16.20;61.60;;;;;;4773824;29;20055;-76
2022/12/04 16:08:39;;;;;;;16.05;5.35;;;16.30;61.40;;;;;;4789357;30;20047;-79
2022/12/04 16:11:17;;;;;;;16.52;5.93;;;16.30;61.40;;;;;;4790042;30;20043;-77
2022/12/04 16:13:43;;;;;;;15.20;5.75;;;16.30;61.30;;;;;;4788558;30;20100;-78
2022/12/04 16:16:15;;;;;;;21.23;5.40;;;16.30;61.30;;;;;;4789651;30;20054;-78
2022/12/04 16:18:42;;;;;;;12.35;4.60;;;16.30;61.10;;;;;;4789396;30;20065;-77
2022/12/04 16:21:15;;;;;;;18.70;4.97;;;16.40;61.10;;;;;;4789660;30;20059;-77
2022/12/04 16:23:41;;;;;;;16.50;5.03;;;16.40;61.20;;;;;;4789035;29;20112;-74
2022/12/04 16:26:12;;;;;;;22.38;5.85;;;16.40;61.20;;;;;;4789334;30;20051;-74
2022/12/04 16:28:38;;;;;;;15.73;5.30;;;16.30;61.10;;;;;;4773449;30;20055;-71
2022/12/04 16:31:04;;;;;;;31.52;6.68;;;16.30;59.70;;;;;;4789687;30;20124;-70
2022/12/04 16:33:29;;;;;;;17.58;8.80;;;16.00;59.50;;;;;;4789231;30;20092;-71
2022/12/04 16:35:55;;;;;;;22.38;8.98;;;16.00;59.10;;;;;;4788628;30;20138;-74
2022/12/04 16:38:21;;;;;;;20.95;8.90;;;16.00;57.60;;;;;;4789847;29;20047;-78
2022/12/04 16:40:47;;;;;;;21.48;9.15;;;15.80;55.40;;;;;;4792420;30;20487;-78
2022/12/04 16:43:15;;;;;;;17.95;8.73;;;15.30;57.60;;;;;;4792621;30;20122;-74
2022/12/04 16:45:51;;;;;;;17.40;8.88;;;15.30;57.80;;;;;;4792555;30;20059;-76
2022/12/04 16:48:17;;;;;;;15.88;8.25;;;15.30;58.00;;;;;;4791742;30;20155;-75
2022/12/04 16:50:44;;;;;;;21.75;9.20;;;15.30;58.20;;;;;;4776458;30;20127;-74
2022/12/04 16:53:19;;;;;;;22.88;8.90;;;15.30;58.30;;;;;;4776616;30;20091;-75
2022/12/04 16:55:50;;;;;;;14.60;8.15;;;15.30;58.50;;;;;;4776175;30;20047;-77
2022/12/04 16:58:17;;;;;;;24.80;9.32;;;15.20;58.70;;;;;;4790610;30;20047;-74
2022/12/04 17:00:49;;;;;;;19.63;8.43;;;15.20;59.10;;;;;;4774923;30;20472;-77
2022/12/04 17:03:19;;;;;;;13.15;7.50;;;15.10;59.20;;;;;;4791410;30;20059;-76
2022/12/04 17:05:45;;;;;;;14.63;8.40;;;15.10;59.50;;;;;;4775512;30;20055;-73
2022/12/04 17:08:11;;;;;;;14.27;7.35;;;15.10;59.70;;;;;;4791949;30;20133;-75
2022/12/04 17:10:39;;;;;;;13.73;7.47;;;15.10;59.90;;;;;;4776379;30;20476;-76
2022/12/04 17:13:05;;;;;;;16.00;7.50;;;15.00;60.10;;;;;;4791175;29;20040;-74
2022/12/04 17:15:30;;;;;;;19.77;7.80;;;15.00;60.20;;;;;;4790794;30;20065;-77
2022/12/04 17:17:56;;;;;;;17.48;7.65;;;14.90;60.50;;;;;;4791859;29;20047;-72
2022/12/04 17:20:22;;;;;;;19.80;7.80;;;14.90;60.50;;;;;;4776152;30;20506;-76
2022/12/04 17:22:48;;;;;;;19.60;7.55;;;14.80;60.90;;;;;;4791557;30;20047;-74
2022/12/04 17:25:15;;;;;;;15.95;7.65;;;14.80;60.90;;;;;;4791783;29;20055;-73